Map

Track Data

SID SEASON NUMBER BASIN SUBBASIN NAME ISO_TIME NATURE LAT LON WMO_WIND WMO_PRES WMO_AGENCY TRACK_TYPE DIST2LAND LANDFALL IFLAG USA_AGENCY USA_ATCF_ID USA_LAT USA_LON USA_RECORD USA_STATUS USA_WIND USA_PRES USA_SSHS USA_R34_NE USA_R34_SE USA_R34_SW USA_R34_NW USA_R50_NE USA_R50_SE USA_R50_SW USA_R50_NW USA_R64_NE USA_R64_SE USA_R64_SW USA_R64_NW USA_POCI USA_ROCI USA_RMW USA_EYE TOKYO_LAT TOKYO_LON TOKYO_GRADE TOKYO_WIND TOKYO_PRES TOKYO_R50_DIR TOKYO_R50_LONG TOKYO_R50_SHORT TOKYO_R30_DIR TOKYO_R30_LONG TOKYO_R30_SHORT TOKYO_LAND CMA_LAT CMA_LON CMA_CAT CMA_WIND CMA_PRES HKO_LAT HKO_LON HKO_CAT HKO_WIND HKO_PRES NEWDELHI_LAT NEWDELHI_LON NEWDELHI_GRADE NEWDELHI_WIND NEWDELHI_PRES NEWDELHI_CI NEWDELHI_DP NEWDELHI_POCI REUNION_LAT REUNION_LON REUNION_TYPE REUNION_WIND REUNION_PRES REUNION_TNUM REUNION_CI REUNION_RMW REUNION_R34_NE REUNION_R34_SE REUNION_R34_SW REUNION_R34_NW REUNION_R50_NE REUNION_R50_SE REUNION_R50_SW REUNION_R50_NW REUNION_R64_NE REUNION_R64_SE REUNION_R64_SW REUNION_R64_NW BOM_LAT BOM_LON BOM_TYPE BOM_WIND BOM_PRES BOM_TNUM BOM_CI BOM_RMW BOM_R34_NE BOM_R34_SE BOM_R34_SW BOM_R34_NW BOM_R50_NE BOM_R50_SE BOM_R50_SW BOM_R50_NW BOM_R64_NE BOM_R64_SE BOM_R64_SW BOM_R64_NW BOM_ROCI BOM_POCI BOM_EYE BOM_POS_METHOD BOM_PRES_METHOD NADI_LAT NADI_LON NADI_CAT NADI_WIND NADI_PRES WELLINGTON_LAT WELLINGTON_LON WELLINGTON_WIND WELLINGTON_PRES DS824_LAT DS824_LON DS824_STAGE DS824_WIND DS824_PRES TD9636_LAT TD9636_LON TD9636_STAGE TD9636_WIND TD9636_PRES TD9635_LAT TD9635_LON TD9635_WIND TD9635_PRES TD9635_ROCI NEUMANN_LAT NEUMANN_LON NEUMANN_CLASS NEUMANN_WIND NEUMANN_PRES MLC_LAT MLC_LON MLC_CLASS MLC_WIND MLC_PRES USA_GUST BOM_GUST BOM_GUST_PER REUNION_GUST REUNION_GUST_PER USA_SEAHGT USA_SEARAD_NE USA_SEARAD_SE USA_SEARAD_SW USA_SEARAD_NW STORM_SPEED STORM_DIR
1948088S15067 1948 25 SI MM NOT_NAMED 1948-03-27 12:00:00 NR -15.1000 66.9000 reunion main 1123 1108 _____O________ -1 -15.1000 66.9000 99 9.90000 3 233
1948088S15067 1948 25 SI MM NOT_NAMED 1948-03-27 15:00:00 NR -15.1982 66.7646 main 1108 1084 _____P________ -1 -15.1982 66.7646 99 3 233
1948088S15067 1948 25 SI MM NOT_NAMED 1948-03-27 18:00:00 NR -15.2941 66.6325 main 1084 1069 _____P________ -1 -15.2941 66.6325 99 3 233
1948088S15067 1948 25 SI MM NOT_NAMED 1948-03-27 21:00:00 NR -15.3856 66.5071 main 1069 1054 _____P________ -1 -15.3856 66.5071 99 3 233
1948088S15067 1948 25 SI MM NOT_NAMED 1948-03-28 00:00:00 NR -15.4704 66.3917 main 1054 1030 _____P________ -1 -15.4704 66.3917 99 3 233
1948088S15067 1948 25 SI MM NOT_NAMED 1948-03-28 03:00:00 NR -15.5465 66.2899 main 1045 1045 _____P________ -1 -15.5465 66.2899 99 14 32
1948088S15067 1948 25 SI MM NOT_NAMED 1948-03-28 06:00:00 TS -14.3209 67.1457 main 1190 1190 O____P___OO___ jtwc_sh SH211948 -12.6000 68.4000 -1 -15.6115 66.2050 99 -12.6000 68.4000 TC 25 -12.6000 68.4000 7 18 34
1948088S15067 1948 25 SI MM NOT_NAMED 1948-03-28 09:00:00 TS -14.0628 67.3162 main 1220 1220 P____P___PP___ SH211948 -12.9926 68.1027 -1 -15.6634 66.1406 99 -12.9926 68.1027 TC 25 -13.0019 68.0943 7 2 30
1948088S15067 1948 25 SI MM NOT_NAMED 1948-03-28 12:00:00 TS -14.1107 67.2747 reunion main 1220 1199 O____O___OP___ jtwc_sh SH211948 -13.4000 67.8000 -1 -15.7000 66.1000 99 9.90000 -13.4000 67.8000 TC 25 -13.4128 67.7905 7 3 215
1948088S15067 1948 25 SI MM NOT_NAMED 1948-03-28 15:00:00 TS -14.3085 67.1402 main 1190 1153 P____P___PP___ SH211948 -13.8350 67.4924 -1 -15.7215 66.0846 99 -13.8350 67.4924 TC 30 -13.8424 67.4914 7 7 212
1948088S15067 1948 25 SI MM NOT_NAMED 1948-03-28 18:00:00 TS -14.6594 66.9219 main 1147 1111 O____P___OO___ jtwc_sh SH211948 -14.3000 67.2000 -1 -15.7376 66.0877 99 -14.3000 67.2000 TC 35 -14.3000 67.2000 2 8 209
1948088S15067 1948 25 SI MM NOT_NAMED 1948-03-28 21:00:00 TS -15.0340 66.7262 main 1111 1079 P____P___PP___ SH211948 -14.7924 66.9424 -1 -15.7604 66.1005 99 -14.7924 66.9424 TC 35 -14.7906 66.9194 2 9 206
1948088S15067 1948 25 SI MM NOT_NAMED 1948-03-29 00:00:00 TS -15.4255 66.5423 main 1069 1038 O____P___OP___ jtwc_sh SH211948 -15.3000 66.7000 -1 -15.8022 66.1141 99 -15.3000 66.7000 TC 35 -15.2999 66.6551 2 9 204
1948088S15067 1948 25 SI MM NOT_NAMED 1948-03-29 03:00:00 TS -15.8286 66.3507 main 1038 998 P____P___PP___ SH211948 -15.8150 66.4350 -1 -15.8748 66.1197 99 -15.8150 66.4350 TC 35 -15.8094 66.4132 2 9 204
1948088S15067 1948 25 SI MM NOT_NAMED 1948-03-29 06:00:00 TS -16.2227 66.1771 main 998 968 O____P___OO___ jtwc_sh SH211948 -16.3000 66.2000 -1 -15.9906 66.1084 99 -16.3000 66.2000 TC 35 -16.3000 66.2000 2 8 201
1948088S15067 1948 25 SI MM NOT_NAMED 1948-03-29 09:00:00 TS -16.5807 66.0434 main 958 934 P____P___PP___ SH211948 -16.7074 66.0348 -1 -16.1616 66.0715 99 -16.7074 66.0348 TC 35 -16.7463 66.0326 2 8 199
1948088S15067 1948 25 SI MM NOT_NAMED 1948-03-29 12:00:00 TS -16.9430 65.9228 reunion main 934 906 O____O___OP___ jtwc_sh SH211948 -17.1000 65.9000 -1 -16.4000 66.0000 99 9.90000 -17.1000 65.9000 TC 35 -17.1721 65.8914 2 8 197
1948088S15067 1948 25 SI MM NOT_NAMED 1948-03-29 15:00:00 TS -17.3580 65.7949 main 902 876 P____P___PP___ SH211948 -17.5500 65.7500 -1 -16.7452 65.9250 99 -17.5500 65.7500 TC 35 -17.5869 65.7545 2 9 197
1948088S15067 1948 25 SI MM NOT_NAMED 1948-03-29 18:00:00 TS -17.7897 65.6560 main 876 841 O____P___OO___ jtwc_sh SH211948 -18.0000 65.6000 -1 -17.1588 65.8239 99 -18.0000 65.6000 TC 35 -18.0000 65.6000 2 9 197
1948088S15067 1948 25 SI MM NOT_NAMED 1948-03-29 21:00:00 TS -18.2107 65.5207 main 841 819 P____P___PP___ SH211948 -18.3999 65.4722 -1 -17.6268 65.6904 99 -18.3999 65.4722 TC 35 -18.4163 65.4481 2 9 199
1948088S15067 1948 25 SI MM NOT_NAMED 1948-03-30 00:00:00 TS -18.6424 65.3464 main 808 775 O____P___OP___ jtwc_sh SH211948 -18.8000 65.3000 -1 -18.1356 65.5177 99 -18.8000 65.3000 TC 35 -18.8340 65.2679 2 10 204
1948088S15067 1948 25 SI MM NOT_NAMED 1948-03-30 03:00:00 TS -19.1039 65.1082 main 775 735 P____P___PP___ SH211948 -19.2424 65.0523 -1 -18.6711 65.2992 99 -19.2424 65.0523 TC 35 -19.2597 65.0289 2 11 210
1948088S15067 1948 25 SI MM NOT_NAMED 1948-03-30 06:00:00 TS -19.5799 64.7820 main 735 689 O____P___OO___ jtwc_sh SH211948 -19.7000 64.7000 -1 -19.2196 65.0281 99 -19.7000 64.7000 TC 35 -19.7000 64.7000 2 12 216
1948088S15067 1948 25 SI MM NOT_NAMED 1948-03-30 09:00:00 TS -20.0573 64.3607 main 689 636 P____P___PP___ SH211948 -20.1424 64.2447 -1 -19.7672 64.6973 99 -20.1424 64.2447 TC 35 -20.1772 64.2562 2 13 222
1948088S15067 1948 25 SI MM NOT_NAMED 1948-03-30 12:00:00 TS -20.5413 63.8552 reunion main 636 577 O____O___OP___ jtwc_sh SH211948 -20.6000 63.7000 -1 -20.3000 64.3000 99 9.90000 -20.6000 63.7000 TC 35 -20.6653 63.7207 2 14 226
1948088S15067 1948 25 SI MM NOT_NAMED 1948-03-30 15:00:00 TS -21.0378 63.2717 main 577 526 P____P___PP___ SH211948 -21.1074 63.1150 -1 -20.7904 63.7323 99 -21.1074 63.1150 TC 35 -21.1457 63.1247 2 15 229
1948088S15067 1948 25 SI MM NOT_NAMED 1948-03-30 18:00:00 TS -21.5189 62.6450 main 516 480 O____P___OO___ jtwc_sh SH211948 -21.6000 62.5000 -1 -21.2757 63.0802 99 -21.6000 62.5000 TC 35 -21.6000 62.5000 2 15 232
1948088S15067 1948 25 SI MM NOT_NAMED 1948-03-30 21:00:00 TS -21.9524 62.0157 main 475 432 P____P___PP___ SH211948 -22.0222 61.9070 -1 -21.7503 62.3751 99 -22.0222 61.9070 TC 35 -22.0149 61.8734 2 14 235
1948088S15067 1948 25 SI MM NOT_NAMED 1948-03-31 00:00:00 TS -22.3404 61.3957 main 432 403 O____P___OP___ jtwc_sh SH211948 -22.4000 61.3000 -1 -22.2090 61.6493 99 -22.4000 61.3000 TC 35 -22.3963 61.2490 2 14 237
1948088S15067 1948 25 SI MM NOT_NAMED 1948-03-31 03:00:00 TS -22.7120 60.7635 main 403 380 P____P___PP___ SH211948 -22.7556 60.6607 -1 -22.6472 60.9355 99 -22.7556 60.6607 TC 35 -22.7545 60.6251 2 14 237
1948088S15067 1948 25 SI MM NOT_NAMED 1948-03-31 06:00:00 TS -23.0775 60.1525 main 388 377 O____P___OO___ jtwc_sh SH211948 -23.1000 60.0000 -1 -23.0607 60.2668 99 -23.1000 60.0000 TC 35 -23.1000 60.0000 2 12 234
1948088S15067 1948 25 SI MM NOT_NAMED 1948-03-31 09:00:00 NR -23.4460 59.6770 main 384 383 _____P________ SH211948 -1 -23.4460 59.6770 99 TC 2 11 230
1948088S15067 1948 25 SI MM NOT_NAMED 1948-03-31 12:00:00 NR -23.8000 59.2000 reunion main 399 399 _____O________ -1 -23.8000 59.2000 99 9.90000 2 10 228
1948088S15067 1948 25 SI MM NOT_NAMED 1948-03-31 15:00:00 NR -24.1213 58.8613 main 420 418 _____P________ -1 -24.1213 58.8613 99 2 8 219
1948088S15067 1948 25 SI MM NOT_NAMED 1948-03-31 18:00:00 NR -24.4136 58.6520 main 447 445 _____P________ -1 -24.4136 58.6520 99 6 206
1948088S15067 1948 25 SI MM NOT_NAMED 1948-03-31 21:00:00 NR -24.6815 58.5542 main 475 469 _____P________ -1 -24.6815 58.5542 99 5 190
1948088S15067 1948 25 SI MM NOT_NAMED 1948-04-01 00:00:00 NR -24.9293 58.5499 main 487 487 _____P________ -1 -24.9293 58.5499 99 5 173
1948088S15067 1948 25 SI MM NOT_NAMED 1948-04-01 03:00:00 NR -25.1611 58.6208 main 521 521 _____P________ -1 -25.1611 58.6208 99 5 158
1948088S15067 1948 25 SI MM NOT_NAMED 1948-04-01 06:00:00 NR -25.3809 58.7485 main 545 545 _____P________ -1 -25.3809 58.7485 99 5 148
1948088S15067 1948 25 SI MM NOT_NAMED 1948-04-01 09:00:00 NR -25.5925 58.9145 main 575 575 _____P________ -1 -25.5925 58.9145 99 5 143
1948088S15067 1948 25 SI MM NOT_NAMED 1948-04-01 12:00:00 NR -25.8000 59.1000 reunion main 604 _____O________ -1 -25.8000 59.1000 99 9.90000 5 141

About IBTrACS Database

This database is a web-friendly format of International Best Track Archive for Climate Stewardship (IBTrACS), a global best track data archive curated by NOAA dating back to 1842.

Updated: 2021-10-21